sim
Sign-in with your pilot id or email,
or register
Callsign
Passwort

Schedule Details

Flight Number: OEC262
Departure: Agadir Al Massira Airport (GMAD) at Time
Arrival: Fuerteventura Airport (GCFV) at Time

Weather Information
Getting current METAR information for GMAD 192300Z 16009KT CAVOK 15/09 Q1010 NOSIG
Getting current METAR information for GCFV 192300Z AUTO 35015KT 9999 NCD 18/12 Q1018

Schedule Frequency

Route Map